Terminal Aerodrome Forecast
Issued by NWS

Home | Current Version | Previous Version | Text Only | Print | Product List | Glossary On
Versions: 1 2 3 4 5 6 7 8 9 10 11 12 13 14 15 16 17 18 19 20 21 22 23 24
000
FTAK31 PAFA 190537 CCB
TAFAFA
TAF COR
PAFA 190537Z 1906/2012 06004KT P6SM VCTS SCT050CB BKN080 BKN120
      TEMPO 1906/1907 VRB10G19KT 2SM -TSRA BKN040CB
     FM190800 VRB03KT P6SM VCSH SCT050 BKN100
     FM191400 00000KT 4SM -SHRA BR BKN007 OVC015
     FM191700 25005KT P6SM -SHRA OVC025
     FM192300 27005KT P6SM VCTS SCT025CB BKN050=

USA.gov is the U.S. government's official web portal to all federal, state and local government web resources and services.